sensor_id;sensor_type;location;lat;lon;timestamp;P1;durP1;ratioP1;P2;durP2;ratioP2
50739;SDS011;36704;52.524;17.580;2024-02-26T00:04:07;88.95;;;36.08;;
50739;SDS011;36704;52.524;17.580;2024-02-26T00:09:27;195.98;;;63.08;;
50739;SDS011;36704;52.524;17.580;2024-02-26T00:14:48;184.48;;;55.65;;
50739;SDS011;36704;52.524;17.580;2024-02-26T00:20:10;269.35;;;138.45;;
50739;SDS011;36704;52.524;17.580;2024-02-26T00:25:32;169.87;;;105.23;;
50739;SDS011;36704;52.524;17.580;2024-02-26T00:30:53;178.80;;;49.17;;
50739;SDS011;36704;52.524;17.580;2024-02-26T00:36:16;154.70;;;45.95;;
50739;SDS011;36704;52.524;17.580;2024-02-26T00:41:42;93.97;;;37.58;;
50739;SDS011;36704;52.524;17.580;2024-02-26T00:47:03;74.07;;;31.13;;
50739;SDS011;36704;52.524;17.580;2024-02-26T00:52:24;113.10;;;41.28;;
50739;SDS011;36704;52.524;17.580;2024-02-26T00:57:45;91.07;;;36.03;;
50739;SDS011;36704;52.524;17.580;2024-02-26T01:03:06;98.47;;;39.30;;
50739;SDS011;36704;52.524;17.580;2024-02-26T01:08:28;94.17;;;37.53;;
50739;SDS011;36704;52.524;17.580;2024-02-26T01:13:49;169.48;;;44.58;;
50739;SDS011;36704;52.524;17.580;2024-02-26T01:19:14;128.82;;;43.88;;
50739;SDS011;36704;52.524;17.580;2024-02-26T01:24:36;127.60;;;44.65;;
50739;SDS011;36704;52.524;17.580;2024-02-26T01:29:56;107.57;;;40.67;;
50739;SDS011;36704;52.524;17.580;2024-02-26T01:35:18;99.13;;;39.60;;
50739;SDS011;36704;52.524;17.580;2024-02-26T01:40:39;125.93;;;44.33;;
50739;SDS011;36704;52.524;17.580;2024-02-26T01:46:00;91.82;;;37.83;;
50739;SDS011;36704;52.524;17.580;2024-02-26T01:51:21;97.32;;;35.40;;
50739;SDS011;36704;52.524;17.580;2024-02-26T01:56:43;85.27;;;33.53;;
50739;SDS011;36704;52.524;17.580;2024-02-26T02:02:05;149.32;;;46.05;;
50739;SDS011;36704;52.524;17.580;2024-02-26T02:07:28;112.45;;;40.08;;
50739;SDS011;36704;52.524;17.580;2024-02-26T02:12:49;89.93;;;37.77;;
50739;SDS011;36704;52.524;17.580;2024-02-26T02:18:10;83.72;;;34.58;;
50739;SDS011;36704;52.524;17.580;2024-02-26T02:23:31;89.70;;;37.30;;
50739;SDS011;36704;52.524;17.580;2024-02-26T02:28:52;82.68;;;34.92;;
50739;SDS011;36704;52.524;17.580;2024-02-26T02:34:14;118.20;;;78.07;;
50739;SDS011;36704;52.524;17.580;2024-02-26T02:39:35;129.50;;;85.35;;
50739;SDS011;36704;52.524;17.580;2024-02-26T02:44:56;124.10;;;38.55;;
50739;SDS011;36704;52.524;17.580;2024-02-26T02:50:17;76.05;;;30.55;;
50739;SDS011;36704;52.524;17.580;2024-02-26T02:55:38;59.42;;;26.95;;
50739;SDS011;36704;52.524;17.580;2024-02-26T03:00:59;76.55;;;32.58;;
50739;SDS011;36704;52.524;17.580;2024-02-26T03:06:21;64.65;;;29.40;;
50739;SDS011;36704;52.524;17.580;2024-02-26T03:11:43;78.13;;;36.97;;
50739;SDS011;36704;52.524;17.580;2024-02-26T03:17:05;70.87;;;29.90;;
50739;SDS011;36704;52.524;17.580;2024-02-26T03:22:25;69.85;;;30.65;;
50739;SDS011;36704;52.524;17.580;2024-02-26T03:27:46;62.35;;;28.42;;
50739;SDS011;36704;52.524;17.580;2024-02-26T03:33:07;76.90;;;32.10;;
50739;SDS011;36704;52.524;17.580;2024-02-26T03:38:29;68.80;;;31.43;;
50739;SDS011;36704;52.524;17.580;2024-02-26T03:43:51;103.68;;;36.97;;
50739;SDS011;36704;52.524;17.580;2024-02-26T03:49:11;90.18;;;34.45;;
50739;SDS011;36704;52.524;17.580;2024-02-26T03:54:34;77.90;;;34.30;;
50739;SDS011;36704;52.524;17.580;2024-02-26T03:59:55;68.05;;;33.90;;
50739;SDS011;36704;52.524;17.580;2024-02-26T04:05:17;86.20;;;32.88;;
50739;SDS011;36704;52.524;17.580;2024-02-26T04:10:38;77.45;;;33.15;;
50739;SDS011;36704;52.524;17.580;2024-02-26T04:16:00;70.13;;;32.63;;
50739;SDS011;36704;52.524;17.580;2024-02-26T04:21:24;74.45;;;31.88;;
50739;SDS011;36704;52.524;17.580;2024-02-26T04:26:47;72.43;;;32.25;;
50739;SDS011;36704;52.524;17.580;2024-02-26T04:32:08;71.80;;;29.80;;
50739;SDS011;36704;52.524;17.580;2024-02-26T04:37:29;69.90;;;34.13;;
50739;SDS011;36704;52.524;17.580;2024-02-26T04:42:51;76.00;;;32.72;;
50739;SDS011;36704;52.524;17.580;2024-02-26T04:48:13;63.13;;;30.48;;
50739;SDS011;36704;52.524;17.580;2024-02-26T04:53:34;62.83;;;29.83;;
50739;SDS011;36704;52.524;17.580;2024-02-26T04:58:55;71.35;;;30.80;;
50739;SDS011;36704;52.524;17.580;2024-02-26T05:04:16;73.13;;;32.92;;
50739;SDS011;36704;52.524;17.580;2024-02-26T05:09:37;74.70;;;32.88;;
50739;SDS011;36704;52.524;17.580;2024-02-26T05:14:57;90.32;;;34.50;;
50739;SDS011;36704;52.524;17.580;2024-02-26T05:20:20;82.32;;;33.17;;
50739;SDS011;36704;52.524;17.580;2024-02-26T05:25:40;72.82;;;30.98;;
50739;SDS011;36704;52.524;17.580;2024-02-26T05:31:02;63.10;;;29.10;;
50739;SDS011;36704;52.524;17.580;2024-02-26T05:36:23;73.13;;;30.80;;
50739;SDS011;36704;52.524;17.580;2024-02-26T05:41:46;68.03;;;28.70;;
50739;SDS011;36704;52.524;17.580;2024-02-26T05:47:07;149.13;;;53.80;;
50739;SDS011;36704;52.524;17.580;2024-02-26T05:52:28;82.07;;;35.25;;
50739;SDS011;36704;52.524;17.580;2024-02-26T05:57:50;101.78;;;35.97;;
50739;SDS011;36704;52.524;17.580;2024-02-26T06:03:11;88.47;;;35.05;;
50739;SDS011;36704;52.524;17.580;2024-02-26T06:08:32;92.93;;;35.13;;
50739;SDS011;36704;52.524;17.580;2024-02-26T06:13:52;101.88;;;39.83;;
50739;SDS011;36704;52.524;17.580;2024-02-26T06:19:13;81.40;;;35.00;;
50739;SDS011;36704;52.524;17.580;2024-02-26T06:24:37;94.93;;;38.65;;
50739;SDS011;36704;52.524;17.580;2024-02-26T06:29:58;109.05;;;39.65;;
50739;SDS011;36704;52.524;17.580;2024-02-26T06:35:19;96.17;;;35.10;;
50739;SDS011;36704;52.524;17.580;2024-02-26T06:40:40;106.57;;;36.92;;
50739;SDS011;36704;52.524;17.580;2024-02-26T06:46:01;108.40;;;44.67;;
50739;SDS011;36704;52.524;17.580;2024-02-26T06:51:22;121.40;;;43.67;;
50739;SDS011;36704;52.524;17.580;2024-02-26T06:56:43;89.85;;;35.42;;
50739;SDS011;36704;52.524;17.580;2024-02-26T07:02:04;74.30;;;30.83;;
50739;SDS011;36704;52.524;17.580;2024-02-26T07:07:26;88.80;;;39.13;;
50739;SDS011;36704;52.524;17.580;2024-02-26T07:12:47;94.80;;;41.38;;
50739;SDS011;36704;52.524;17.580;2024-02-26T07:18:07;99.80;;;41.95;;
50739;SDS011;36704;52.524;17.580;2024-02-26T07:23:29;71.63;;;34.03;;
50739;SDS011;36704;52.524;17.580;2024-02-26T07:28:50;72.53;;;31.42;;
50739;SDS011;36704;52.524;17.580;2024-02-26T07:34:11;51.47;;;24.60;;
50739;SDS011;36704;52.524;17.580;2024-02-26T07:39:32;53.17;;;24.27;;
50739;SDS011;36704;52.524;17.580;2024-02-26T07:44:53;53.30;;;24.77;;
50739;SDS011;36704;52.524;17.580;2024-02-26T07:50:15;48.23;;;22.30;;
50739;SDS011;36704;52.524;17.580;2024-02-26T07:55:36;53.87;;;26.47;;
50739;SDS011;36704;52.524;17.580;2024-02-26T08:00:57;54.13;;;26.27;;
50739;SDS011;36704;52.524;17.580;2024-02-26T08:06:18;48.75;;;24.65;;
50739;SDS011;36704;52.524;17.580;2024-02-26T08:11:39;57.47;;;26.13;;
50739;SDS011;36704;52.524;17.580;2024-02-26T08:17:00;55.72;;;24.65;;
50739;SDS011;36704;52.524;17.580;2024-02-26T08:22:21;52.80;;;25.20;;
50739;SDS011;36704;52.524;17.580;2024-02-26T08:27:42;49.35;;;24.05;;
50739;SDS011;36704;52.524;17.580;2024-02-26T08:33:03;53.00;;;24.00;;
50739;SDS011;36704;52.524;17.580;2024-02-26T08:38:24;33.03;;;17.07;;
50739;SDS011;36704;52.524;17.580;2024-02-26T08:43:45;46.50;;;25.73;;
50739;SDS011;36704;52.524;17.580;2024-02-26T08:49:06;70.88;;;28.88;;
50739;SDS011;36704;52.524;17.580;2024-02-26T08:54:27;33.95;;;16.08;;
50739;SDS011;36704;52.524;17.580;2024-02-26T08:59:47;35.75;;;17.17;;
50739;SDS011;36704;52.524;17.580;2024-02-26T09:05:09;32.50;;;16.17;;
50739;SDS011;36704;52.524;17.580;2024-02-26T09:10:30;38.92;;;21.88;;
50739;SDS011;36704;52.524;17.580;2024-02-26T09:15:52;39.15;;;19.75;;
50739;SDS011;36704;52.524;17.580;2024-02-26T09:21:13;26.93;;;15.07;;
50739;SDS011;36704;52.524;17.580;2024-02-26T09:26:34;33.58;;;19.50;;
50739;SDS011;36704;52.524;17.580;2024-02-26T09:31:55;29.73;;;16.23;;
50739;SDS011;36704;52.524;17.580;2024-02-26T09:37:16;36.10;;;15.53;;
50739;SDS011;36704;52.524;17.580;2024-02-26T09:42:43;32.80;;;17.77;;
50739;SDS011;36704;52.524;17.580;2024-02-26T09:48:05;33.03;;;16.85;;
50739;SDS011;36704;52.524;17.580;2024-02-26T09:53:30;34.53;;;19.20;;
50739;SDS011;36704;52.524;17.580;2024-02-26T09:58:56;31.38;;;16.75;;
50739;SDS011;36704;52.524;17.580;2024-02-26T10:04:18;42.15;;;20.73;;
50739;SDS011;36704;52.524;17.580;2024-02-26T10:09:40;41.65;;;20.30;;
50739;SDS011;36704;52.524;17.580;2024-02-26T10:15:01;35.08;;;20.45;;
50739;SDS011;36704;52.524;17.580;2024-02-26T10:20:22;27.13;;;15.75;;
50739;SDS011;36704;52.524;17.580;2024-02-26T10:25:52;27.38;;;17.05;;
50739;SDS011;36704;52.524;17.580;2024-02-26T10:31:15;38.50;;;17.67;;
50739;SDS011;36704;52.524;17.580;2024-02-26T10:36:36;49.27;;;31.47;;
50739;SDS011;36704;52.524;17.580;2024-02-26T10:42:12;42.10;;;26.67;;
50739;SDS011;36704;52.524;17.580;2024-02-26T10:47:33;36.03;;;23.38;;
50739;SDS011;36704;52.524;17.580;2024-02-26T10:52:55;26.42;;;17.70;;
50739;SDS011;36704;52.524;17.580;2024-02-26T11:03:38;18.98;;;13.23;;
50739;SDS011;36704;52.524;17.580;2024-02-26T11:09:01;16.60;;;11.73;;
50739;SDS011;36704;52.524;17.580;2024-02-26T11:14:24;19.75;;;13.00;;
50739;SDS011;36704;52.524;17.580;2024-02-26T11:19:46;21.02;;;12.45;;
50739;SDS011;36704;52.524;17.580;2024-02-26T11:25:09;25.70;;;20.08;;
50739;SDS011;36704;52.524;17.580;2024-02-26T11:30:32;13.45;;;9.10;;
50739;SDS011;36704;52.524;17.580;2024-02-26T11:35:56;13.25;;;9.27;;
50739;SDS011;36704;52.524;17.580;2024-02-26T11:41:17;18.65;;;11.13;;
50739;SDS011;36704;52.524;17.580;2024-02-26T11:46:39;15.93;;;10.90;;
50739;SDS011;36704;52.524;17.580;2024-02-26T11:52:02;17.67;;;11.52;;
50739;SDS011;36704;52.524;17.580;2024-02-26T11:57:27;22.15;;;13.00;;
50739;SDS011;36704;52.524;17.580;2024-02-26T12:02:50;15.35;;;10.27;;
50739;SDS011;36704;52.524;17.580;2024-02-26T12:08:22;14.38;;;11.00;;
50739;SDS011;36704;52.524;17.580;2024-02-26T12:13:49;14.90;;;10.10;;
50739;SDS011;36704;52.524;17.580;2024-02-26T12:19:10;13.30;;;9.70;;
50739;SDS011;36704;52.524;17.580;2024-02-26T12:24:32;16.40;;;11.00;;
50739;SDS011;36704;52.524;17.580;2024-02-26T12:29:53;14.77;;;9.30;;
50739;SDS011;36704;52.524;17.580;2024-02-26T12:35:15;14.83;;;10.20;;
50739;SDS011;36704;52.524;17.580;2024-02-26T12:40:37;13.90;;;9.00;;
50739;SDS011;36704;52.524;17.580;2024-02-26T12:45:58;12.20;;;8.30;;
50739;SDS011;36704;52.524;17.580;2024-02-26T12:56:40;18.67;;;8.32;;
50739;SDS011;36704;52.524;17.580;2024-02-26T13:02:01;11.48;;;7.45;;
50739;SDS011;36704;52.524;17.580;2024-02-26T13:07:27;11.32;;;7.28;;
50739;SDS011;36704;52.524;17.580;2024-02-26T13:12:48;15.20;;;11.30;;
50739;SDS011;36704;52.524;17.580;2024-02-26T13:18:14;13.73;;;8.05;;
50739;SDS011;36704;52.524;17.580;2024-02-26T13:23:42;15.98;;;8.88;;
50739;SDS011;36704;52.524;17.580;2024-02-26T13:29:03;11.48;;;6.57;;
50739;SDS011;36704;52.524;17.580;2024-02-26T13:34:25;14.27;;;7.30;;
50739;SDS011;36704;52.524;17.580;2024-02-26T13:39:47;15.73;;;9.77;;
50739;SDS011;36704;52.524;17.580;2024-02-26T13:45:08;18.23;;;10.33;;
50739;SDS011;36704;52.524;17.580;2024-02-26T13:50:29;15.48;;;9.98;;
50739;SDS011;36704;52.524;17.580;2024-02-26T13:55:50;16.77;;;10.07;;
50739;SDS011;36704;52.524;17.580;2024-02-26T14:01:11;15.00;;;10.55;;
50739;SDS011;36704;52.524;17.580;2024-02-26T14:06:32;15.20;;;10.23;;
50739;SDS011;36704;52.524;17.580;2024-02-26T14:11:53;17.27;;;10.95;;
50739;SDS011;36704;52.524;17.580;2024-02-26T14:17:14;15.67;;;9.00;;
50739;SDS011;36704;52.524;17.580;2024-02-26T14:22:35;16.07;;;10.70;;
50739;SDS011;36704;52.524;17.580;2024-02-26T14:27:57;19.40;;;11.23;;
50739;SDS011;36704;52.524;17.580;2024-02-26T14:33:19;21.77;;;12.65;;
50739;SDS011;36704;52.524;17.580;2024-02-26T14:38:41;19.33;;;11.77;;
50739;SDS011;36704;52.524;17.580;2024-02-26T14:44:01;21.80;;;17.23;;
50739;SDS011;36704;52.524;17.580;2024-02-26T14:49:23;16.90;;;12.00;;
50739;SDS011;36704;52.524;17.580;2024-02-26T14:54:44;20.90;;;10.15;;
50739;SDS011;36704;52.524;17.580;2024-02-26T15:00:06;32.13;;;18.73;;
50739;SDS011;36704;52.524;17.580;2024-02-26T15:05:28;19.00;;;11.15;;
50739;SDS011;36704;52.524;17.580;2024-02-26T15:10:51;26.35;;;15.88;;
50739;SDS011;36704;52.524;17.580;2024-02-26T15:16:19;33.90;;;18.70;;
50739;SDS011;36704;52.524;17.580;2024-02-26T15:21:44;46.45;;;21.60;;
50739;SDS011;36704;52.524;17.580;2024-02-26T15:27:06;33.08;;;20.98;;
50739;SDS011;36704;52.524;17.580;2024-02-26T15:32:27;52.63;;;27.52;;
50739;SDS011;36704;52.524;17.580;2024-02-26T15:37:48;49.78;;;25.33;;
50739;SDS011;36704;52.524;17.580;2024-02-26T15:43:09;79.93;;;45.00;;
50739;SDS011;36704;52.524;17.580;2024-02-26T15:48:38;64.53;;;32.83;;
50739;SDS011;36704;52.524;17.580;2024-02-26T15:53:59;54.85;;;30.10;;
50739;SDS011;36704;52.524;17.580;2024-02-26T15:59:20;46.93;;;22.37;;
50739;SDS011;36704;52.524;17.580;2024-02-26T16:04:41;55.43;;;26.87;;
50739;SDS011;36704;52.524;17.580;2024-02-26T16:10:02;46.33;;;25.33;;
50739;SDS011;36704;52.524;17.580;2024-02-26T16:15:26;64.78;;;35.72;;
50739;SDS011;36704;52.524;17.580;2024-02-26T16:20:48;77.65;;;24.02;;
50739;SDS011;36704;52.524;17.580;2024-02-26T16:26:09;35.30;;;23.77;;
50739;SDS011;36704;52.524;17.580;2024-02-26T16:31:30;40.65;;;21.58;;
50739;SDS011;36704;52.524;17.580;2024-02-26T16:36:51;138.97;;;55.80;;
50739;SDS011;36704;52.524;17.580;2024-02-26T16:42:12;312.85;;;100.15;;
50739;SDS011;36704;52.524;17.580;2024-02-26T16:52:58;77.13;;;27.88;;
50739;SDS011;36704;52.524;17.580;2024-02-26T16:58:19;112.50;;;34.80;;
50739;SDS011;36704;52.524;17.580;2024-02-26T17:03:44;77.13;;;30.92;;
50739;SDS011;36704;52.524;17.580;2024-02-26T17:09:05;43.65;;;20.17;;
50739;SDS011;36704;52.524;17.580;2024-02-26T17:14:28;227.02;;;91.60;;
50739;SDS011;36704;52.524;17.580;2024-02-26T17:19:52;165.15;;;53.55;;
50739;SDS011;36704;52.524;17.580;2024-02-26T17:25:12;82.85;;;42.42;;
50739;SDS011;36704;52.524;17.580;2024-02-26T17:30:34;57.83;;;26.48;;
50739;SDS011;36704;52.524;17.580;2024-02-26T17:35:55;55.50;;;29.17;;
50739;SDS011;36704;52.524;17.580;2024-02-26T17:41:16;44.97;;;21.38;;
50739;SDS011;36704;52.524;17.580;2024-02-26T17:46:37;72.00;;;31.30;;
50739;SDS011;36704;52.524;17.580;2024-02-26T17:51:57;71.82;;;31.90;;
50739;SDS011;36704;52.524;17.580;2024-02-26T17:57:18;70.40;;;27.50;;
50739;SDS011;36704;52.524;17.580;2024-02-26T18:02:41;72.00;;;30.13;;
50739;SDS011;36704;52.524;17.580;2024-02-26T18:08:03;57.10;;;27.27;;
50739;SDS011;36704;52.524;17.580;2024-02-26T18:18:46;85.93;;;38.83;;
50739;SDS011;36704;52.524;17.580;2024-02-26T18:24:08;51.97;;;22.88;;
50739;SDS011;36704;52.524;17.580;2024-02-26T18:29:29;46.55;;;23.60;;
50739;SDS011;36704;52.524;17.580;2024-02-26T18:34:50;44.45;;;22.02;;
50739;SDS011;36704;52.524;17.580;2024-02-26T18:40:11;44.20;;;20.65;;
50739;SDS011;36704;52.524;17.580;2024-02-26T18:45:33;46.25;;;22.58;;
50739;SDS011;36704;52.524;17.580;2024-02-26T18:50:54;39.00;;;20.10;;
50739;SDS011;36704;52.524;17.580;2024-02-26T18:56:15;44.45;;;20.95;;
50739;SDS011;36704;52.524;17.580;2024-02-26T19:01:41;91.60;;;33.47;;
50739;SDS011;36704;52.524;17.580;2024-02-26T19:07:01;50.95;;;24.40;;
50739;SDS011;36704;52.524;17.580;2024-02-26T19:12:23;41.70;;;20.70;;
50739;SDS011;36704;52.524;17.580;2024-02-26T19:17:46;47.97;;;23.90;;
50739;SDS011;36704;52.524;17.580;2024-02-26T19:28:28;64.32;;;22.17;;
50739;SDS011;36704;52.524;17.580;2024-02-26T19:33:50;98.85;;;33.65;;
50739;SDS011;36704;52.524;17.580;2024-02-26T19:39:12;51.60;;;22.63;;
50739;SDS011;36704;52.524;17.580;2024-02-26T19:44:32;48.97;;;23.98;;
50739;SDS011;36704;52.524;17.580;2024-02-26T19:49:53;56.38;;;23.42;;
50739;SDS011;36704;52.524;17.580;2024-02-26T19:55:15;48.67;;;23.80;;
50739;SDS011;36704;52.524;17.580;2024-02-26T20:00:37;61.30;;;25.77;;
50739;SDS011;36704;52.524;17.580;2024-02-26T20:05:58;90.32;;;33.55;;
50739;SDS011;36704;52.524;17.580;2024-02-26T20:11:19;86.32;;;33.92;;
50739;SDS011;36704;52.524;17.580;2024-02-26T20:16:40;68.97;;;34.77;;
50739;SDS011;36704;52.524;17.580;2024-02-26T20:22:02;56.35;;;26.48;;
50739;SDS011;36704;52.524;17.580;2024-02-26T20:27:23;61.15;;;28.77;;
50739;SDS011;36704;52.524;17.580;2024-02-26T20:32:44;51.13;;;26.02;;
50739;SDS011;36704;52.524;17.580;2024-02-26T20:38:05;53.43;;;28.27;;
50739;SDS011;36704;52.524;17.580;2024-02-26T20:43:26;55.75;;;27.73;;
50739;SDS011;36704;52.524;17.580;2024-02-26T20:48:47;76.07;;;29.58;;
50739;SDS011;36704;52.524;17.580;2024-02-26T20:54:09;71.03;;;27.88;;
50739;SDS011;36704;52.524;17.580;2024-02-26T20:59:31;60.25;;;28.13;;
50739;SDS011;36704;52.524;17.580;2024-02-26T21:04:53;69.57;;;31.70;;
50739;SDS011;36704;52.524;17.580;2024-02-26T21:10:16;79.53;;;31.65;;
50739;SDS011;36704;52.524;17.580;2024-02-26T21:15:38;82.82;;;31.95;;
50739;SDS011;36704;52.524;17.580;2024-02-26T21:21:01;57.28;;;26.45;;
50739;SDS011;36704;52.524;17.580;2024-02-26T21:26:22;64.60;;;29.60;;
50739;SDS011;36704;52.524;17.580;2024-02-26T21:31:43;67.57;;;27.92;;
50739;SDS011;36704;52.524;17.580;2024-02-26T21:37:03;59.40;;;28.15;;
50739;SDS011;36704;52.524;17.580;2024-02-26T21:42:24;96.85;;;43.28;;
50739;SDS011;36704;52.524;17.580;2024-02-26T21:47:46;192.65;;;49.25;;
50739;SDS011;36704;52.524;17.580;2024-02-26T21:53:07;138.95;;;37.15;;
50739;SDS011;36704;52.524;17.580;2024-02-26T21:58:29;115.97;;;33.85;;
50739;SDS011;36704;52.524;17.580;2024-02-26T22:03:50;64.47;;;27.67;;
50739;SDS011;36704;52.524;17.580;2024-02-26T22:09:11;56.92;;;26.55;;
50739;SDS011;36704;52.524;17.580;2024-02-26T22:14:32;61.00;;;29.77;;
50739;SDS011;36704;52.524;17.580;2024-02-26T22:19:53;74.97;;;31.77;;
50739;SDS011;36704;52.524;17.580;2024-02-26T22:25:15;79.78;;;32.90;;
50739;SDS011;36704;52.524;17.580;2024-02-26T22:30:36;68.20;;;28.48;;
50739;SDS011;36704;52.524;17.580;2024-02-26T22:35:58;49.67;;;23.65;;
50739;SDS011;36704;52.524;17.580;2024-02-26T22:41:21;44.47;;;20.23;;
50739;SDS011;36704;52.524;17.580;2024-02-26T22:46:42;36.58;;;19.73;;
50739;SDS011;36704;52.524;17.580;2024-02-26T22:52:03;56.83;;;25.45;;
50739;SDS011;36704;52.524;17.580;2024-02-26T22:57:25;52.90;;;24.48;;
50739;SDS011;36704;52.524;17.580;2024-02-26T23:02:46;41.22;;;21.33;;
50739;SDS011;36704;52.524;17.580;2024-02-26T23:08:07;39.47;;;19.67;;
50739;SDS011;36704;52.524;17.580;2024-02-26T23:13:31;43.65;;;21.90;;
50739;SDS011;36704;52.524;17.580;2024-02-26T23:18:52;41.22;;;19.95;;
50739;SDS011;36704;52.524;17.580;2024-02-26T23:24:13;48.95;;;21.90;;
50739;SDS011;36704;52.524;17.580;2024-02-26T23:29:36;140.63;;;47.50;;
50739;SDS011;36704;52.524;17.580;2024-02-26T23:34:57;225.98;;;76.68;;
50739;SDS011;36704;52.524;17.580;2024-02-26T23:40:18;40.30;;;20.45;;
50739;SDS011;36704;52.524;17.580;2024-02-26T23:45:39;43.83;;;22.00;;
50739;SDS011;36704;52.524;17.580;2024-02-26T23:51:01;48.45;;;22.50;;
50739;SDS011;36704;52.524;17.580;2024-02-26T23:56:22;50.38;;;24.67;;
